Time;durP1;ratioP1;P1;durP2;ratioP2;P2;SDS_P1;SDS_P2;PMS_P1;PMS_P2;Temp;Humidity;BMP_temperature;BMP_pressure;BME280_temperature;BME280_humidity;BME280_pressure;Samples;Min_cycle;Max_cycle;Signal;HPM_P1;HPM_P2
2021/06/06 00:00:12;;;;;;;29.75;19.50;;;12.90;99.90;;;;;;5116043;28;20292;-83
2021/06/06 00:02:38;;;;;;;33.58;19.83;;;12.80;99.90;;;;;;5115659;28;20178;-84
2021/06/06 00:05:04;;;;;;;29.63;20.10;;;12.80;99.90;;;;;;5115682;27;20583;-84
2021/06/06 00:07:30;;;;;;;29.92;20.17;;;12.80;99.90;;;;;;5114378;28;20193;-83
2021/06/06 00:09:56;;;;;;;31.70;18.67;;;12.80;99.90;;;;;;5114655;28;20169;-84
2021/06/06 00:12:21;;;;;;;37.88;22.00;;;12.70;99.90;;;;;;5113876;28;20228;-84
2021/06/06 00:14:47;;;;;;;36.13;21.67;;;12.70;99.90;;;;;;5114753;28;20532;-84
2021/06/06 00:17:13;;;;;;;36.47;22.15;;;12.70;99.90;;;;;;5097831;28;20206;-84
2021/06/06 00:19:39;;;;;;;32.42;21.23;;;12.60;99.90;;;;;;5115514;28;20185;-84
2021/06/06 00:22:06;;;;;;;36.53;21.75;;;12.60;99.90;;;;;;5114349;28;20178;-84
2021/06/06 00:24:35;;;;;;;34.92;21.33;;;12.50;99.90;;;;;;5115331;28;20213;-84
2021/06/06 00:27:01;;;;;;;37.25;21.65;;;12.50;99.90;;;;;;5115470;28;20257;-84
2021/06/06 00:29:27;;;;;;;36.65;22.33;;;12.50;99.90;;;;;;5113808;28;20190;-84
2021/06/06 00:31:53;;;;;;;33.05;21.08;;;12.50;99.90;;;;;;5114353;28;20181;-84
2021/06/06 00:34:20;;;;;;;35.95;20.55;;;12.50;99.90;;;;;;5113386;28;20174;-84
2021/06/06 00:36:46;;;;;;;33.45;21.15;;;12.50;99.90;;;;;;5115413;28;20205;-84
2021/06/06 00:39:12;;;;;;;30.27;20.25;;;12.50;99.90;;;;;;5097079;28;20182;-83
2021/06/06 00:41:41;;;;;;;33.90;19.88;;;12.40;99.90;;;;;;5113957;28;20638;-84
2021/06/06 00:44:08;;;;;;;33.08;19.70;;;12.40;99.90;;;;;;5113718;28;20178;-84
2021/06/06 00:46:34;;;;;;;32.60;19.55;;;12.40;99.90;;;;;;5113640;28;20177;-84
2021/06/06 00:49:00;;;;;;;28.10;18.95;;;12.30;99.90;;;;;;5113944;28;20261;-83
2021/06/06 00:51:43;;;;;;;29.00;18.88;;;12.30;99.90;;;;;;5113425;28;20178;-83
2021/06/06 00:54:25;;;;;;;29.08;19.70;;;12.30;99.90;;;;;;5113727;28;20697;-83
2021/06/06 00:57:13;;;;;;;27.92;17.95;;;12.30;99.90;;;;;;5115011;28;20185;-83
2021/06/06 00:59:43;;;;;;;29.52;18.73;;;12.30;99.90;;;;;;5113407;28;20193;-84
2021/06/06 01:02:09;;;;;;;30.60;19.23;;;12.20;99.90;;;;;;5114773;28;20154;-83
2021/06/06 01:04:37;;;;;;;27.40;18.67;;;12.20;99.90;;;;;;5114754;28;20735;-83
2021/06/06 01:07:04;;;;;;;28.73;17.83;;;12.10;99.90;;;;;;5114751;28;20268;-84
2021/06/06 01:09:30;;;;;;;29.95;18.40;;;12.10;99.90;;;;;;5114618;28;20166;-85
2021/06/06 01:12:31;;;;;;;30.38;17.60;;;11.90;99.90;;;;;;5113297;28;20819;-84
2021/06/06 01:15:01;;;;;;;26.85;17.73;;;12.00;99.90;;;;;;5079837;28;20186;-84
2021/06/06 01:17:42;;;;;;;36.00;18.90;;;12.00;99.90;;;;;;5114056;27;20681;-85
2021/06/06 01:20:19;;;;;;;34.90;18.17;;;12.00;99.90;;;;;;5114574;28;20656;-85
2021/06/06 01:23:11;;;;;;;27.80;17.95;;;12.00;99.90;;;;;;5114467;28;20170;-84
2021/06/06 01:25:44;;;;;;;24.17;16.20;;;11.90;99.90;;;;;;5112889;28;20607;-85
2021/06/06 01:28:41;;;;;;;29.52;17.63;;;11.90;99.90;;;;;;5114437;28;20173;-84
2021/06/06 01:31:09;;;;;;;27.20;18.60;;;11.90;99.90;;;;;;5114483;28;20166;-85
2021/06/06 01:33:47;;;;;;;26.48;17.00;;;11.90;99.90;;;;;;5114123;28;20231;-84
2021/06/06 01:36:18;;;;;;;26.33;17.77;;;11.90;99.90;;;;;;5114166;28;20204;-83
2021/06/06 01:38:53;;;;;;;24.83;17.50;;;11.90;99.90;;;;;;5113640;28;20170;-84
2021/06/06 01:41:24;;;;;;;23.70;17.08;;;11.90;99.90;;;;;;5113841;28;20154;-83
2021/06/06 01:43:53;;;;;;;29.48;17.05;;;13.60;99.90;;;;;;5113061;28;20634;-84
2021/06/06 01:46:25;;;;;;;23.05;16.38;;;11.80;99.90;;;;;;5114547;28;20204;-84
2021/06/06 01:48:52;;;;;;;30.35;17.27;;;11.80;99.90;;;;;;5114041;28;20158;-84
2021/06/06 01:51:23;;;;;;;32.78;17.40;;;11.70;99.90;;;;;;5095811;28;20662;-84
2021/06/06 01:53:50;;;;;;;30.42;17.75;;;11.70;99.90;;;;;;5113543;28;20606;-84
2021/06/06 01:56:22;;;;;;;26.10;17.40;;;11.70;99.90;;;;;;5112150;28;20258;-84
2021/06/06 01:58:48;;;;;;;25.73;17.52;;;11.70;99.90;;;;;;5113551;28;20174;-84
2021/06/06 02:01:17;;;;;;;25.35;17.08;;;11.60;99.90;;;;;;5113756;28;20174;-84
2021/06/06 02:03:47;;;;;;;29.67;16.95;;;11.60;99.90;;;;;;5113460;28;20166;-84
2021/06/06 02:06:15;;;;;;;26.55;17.13;;;11.60;99.90;;;;;;5112656;28;20196;-84
2021/06/06 02:08:42;;;;;;;26.52;17.08;;;11.60;99.90;;;;;;5095105;28;20612;-84
2021/06/06 02:11:25;;;;;;;25.70;17.38;;;11.60;99.90;;;;;;5113715;28;20226;-84
2021/06/06 02:14:01;;;;;;;25.30;17.50;;;11.60;99.90;;;;;;5113250;28;20178;-84
2021/06/06 02:16:32;;;;;;;24.90;17.05;;;11.60;99.90;;;;;;5113306;28;20272;-85
2021/06/06 02:18:58;;;;;;;28.50;17.83;;;11.60;99.90;;;;;;5113653;28;20231;-84
2021/06/06 02:21:24;;;;;;;21.85;16.48;;;11.60;99.90;;;;;;5112107;28;20181;-84
2021/06/06 02:23:50;;;;;;;25.85;17.80;;;11.60;99.90;;;;;;5111644;28;20178;-84
2021/06/06 02:26:36;;;;;;;28.83;19.55;;;11.70;99.90;;;;;;5113545;28;20178;-84
2021/06/06 02:29:19;;;;;;;25.80;17.80;;;11.70;99.90;;;;;;5113643;28;20173;-83
2021/06/06 02:32:04;;;;;;;29.73;18.08;;;11.70;99.90;;;;;;5111943;28;20188;-83
2021/06/06 02:35:01;;;;;;;23.20;17.13;;;11.70;99.90;;;;;;5113211;28;20177;-84
2021/06/06 02:37:47;;;;;;;31.35;17.25;;;11.70;99.90;;;;;;5113455;28;20198;-84
2021/06/06 02:40:37;;;;;;;26.05;17.00;;;11.80;99.90;;;;;;5112435;28;20182;-84
2021/06/06 02:43:11;;;;;;;25.42;17.50;;;11.80;99.90;;;;;;5112442;28;20178;-84
2021/06/06 02:45:38;;;;;;;27.40;17.70;;;11.80;99.90;;;;;;5112887;28;20154;-84
2021/06/06 02:48:09;;;;;;;28.40;18.08;;;11.80;99.90;;;;;;5112169;28;20181;-84
2021/06/06 02:50:38;;;;;;;28.70;15.85;;;11.80;99.90;;;;;;5113193;28;20159;-84
2021/06/06 02:53:22;;;;;;;26.50;16.95;;;11.80;99.90;;;;;;5112306;28;20227;-84
2021/06/06 02:55:52;;;;;;;24.20;17.48;;;11.80;99.90;;;;;;5112573;28;20701;-84
2021/06/06 02:58:49;;;;;;;25.42;16.90;;;11.80;99.90;;;;;;5113297;28;20197;-84
2021/06/06 03:01:34;;;;;;;25.80;16.73;;;11.80;99.90;;;;;;5112356;28;20260;-84
2021/06/06 03:04:04;;;;;;;25.77;16.60;;;11.80;99.90;;;;;;5113483;28;20218;-85
2021/06/06 03:06:36;;;;;;;24.80;16.98;;;11.90;99.90;;;;;;5115828;28;20211;-85
2021/06/06 03:09:04;;;;;;;24.15;16.42;;;11.90;99.90;;;;;;5115823;28;20182;-85
2021/06/06 03:11:30;;;;;;;23.63;16.00;;;11.90;99.90;;;;;;5115420;28;20225;-85
2021/06/06 03:14:00;;;;;;;31.92;17.30;;;11.90;99.90;;;;;;5115356;27;20279;-84
2021/06/06 03:16:28;;;;;;;22.73;16.42;;;11.90;99.90;;;;;;5115641;28;20198;-84
2021/06/06 03:18:56;;;;;;;26.83;16.83;;;12.00;99.90;;;;;;5116525;28;20230;-85
2021/06/06 03:21:29;;;;;;;24.25;16.42;;;12.00;99.90;;;;;;5116698;28;20173;-84
2021/06/06 03:24:20;;;;;;;28.73;18.02;;;12.00;99.90;;;;;;5116536;28;20641;-85
2021/06/06 03:26:47;;;;;;;24.52;16.30;;;12.10;99.90;;;;;;5114861;28;20273;-85
2021/06/06 03:29:16;;;;;;;22.13;17.08;;;12.10;99.90;;;;;;5115359;28;20588;-86
2021/06/06 03:31:49;;;;;;;27.00;17.08;;;12.10;99.90;;;;;;5116285;28;20174;-85
2021/06/06 03:34:15;;;;;;;29.48;17.05;;;12.20;99.90;;;;;;5115348;28;20205;-85
2021/06/06 03:36:44;;;;;;;23.48;16.92;;;12.20;99.90;;;;;;5114904;28;20233;-86
2021/06/06 03:39:14;;;;;;;22.92;16.02;;;12.30;99.90;;;;;;5117519;27;20177;-84
2021/06/06 03:41:41;;;;;;;27.88;16.77;;;12.30;99.90;;;;;;5117667;28;20166;-84
2021/06/06 03:44:06;;;;;;;28.98;16.88;;;12.40;99.90;;;;;;5117574;28;20662;-85
2021/06/06 03:46:34;;;;;;;29.02;16.67;;;12.50;99.90;;;;;;5115172;28;20185;-85
2021/06/06 03:49:00;;;;;;;25.42;17.02;;;12.50;99.90;;;;;;5116287;28;20177;-85
2021/06/06 03:51:28;;;;;;;22.48;15.23;;;12.60;99.90;;;;;;5116579;28;20230;-85
2021/06/06 03:53:54;;;;;;;23.73;16.67;;;12.70;99.90;;;;;;5115743;27;20174;-85
2021/06/06 03:56:20;;;;;;;25.98;15.52;;;12.90;99.90;;;;;;5131967;27;20206;-85
2021/06/06 03:58:46;;;;;;;37.35;23.55;;;13.00;99.90;;;;;;5114513;28;20276;-85
2021/06/06 04:01:12;;;;;;;24.80;16.25;;;13.10;99.90;;;;;;5097856;28;20182;-85
2021/06/06 04:03:38;;;;;;;26.10;16.52;;;13.20;99.90;;;;;;5115732;27;20631;-86
2021/06/06 04:06:04;;;;;;;26.45;16.77;;;13.30;99.90;;;;;;5115973;28;20178;-85
2021/06/06 04:08:31;;;;;;;23.33;15.50;;;13.40;99.90;;;;;;5097763;28;20607;-85
2021/06/06 04:10:57;;;;;;;22.35;15.38;;;13.50;99.90;;;;;;5097129;28;20190;-85
2021/06/06 04:13:23;;;;;;;22.92;15.80;;;13.60;99.90;;;;;;5097876;28;20178;-85
2021/06/06 04:15:49;;;;;;;22.55;15.20;;;13.80;99.90;;;;;;5097044;28;20182;-85
2021/06/06 04:18:14;;;;;;;19.42;14.73;;;13.90;99.90;;;;;;5114561;28;20210;-85
2021/06/06 04:20:42;;;;;;;19.40;14.13;;;14.10;99.90;;;;;;5115276;28;20522;-85
2021/06/06 04:23:08;;;;;;;17.52;13.43;;;14.20;99.90;;;;;;5115729;28;20260;-85
2021/06/06 04:25:34;;;;;;;18.83;13.38;;;14.40;99.90;;;;;;5115434;28;20177;-85
2021/06/06 04:28:00;;;;;;;20.05;14.70;;;14.50;99.90;;;;;;5114933;28;20669;-85
2021/06/06 04:30:26;;;;;;;21.02;14.40;;;14.70;99.90;;;;;;5114297;28;20185;-85
2021/06/06 04:32:52;;;;;;;20.35;13.65;;;14.70;99.90;;;;;;5115448;28;20181;-86
2021/06/06 04:35:18;;;;;;;16.73;12.23;;;14.80;99.90;;;;;;5097040;28;20178;-85
2021/06/06 04:37:43;;;;;;;19.88;13.75;;;14.90;99.90;;;;;;5096881;28;20217;-85
2021/06/06 04:40:11;;;;;;;16.40;12.30;;;15.00;99.90;;;;;;5114102;28;20657;-85
2021/06/06 04:42:37;;;;;;;19.65;13.38;;;15.10;99.90;;;;;;5115055;28;20621;-85
2021/06/06 04:45:06;;;;;;;15.95;12.07;;;15.30;99.90;;;;;;5096860;28;20186;-85
2021/06/06 04:47:32;;;;;;;18.58;12.57;;;15.50;99.90;;;;;;5113799;28;20280;-85
2021/06/06 04:49:58;;;;;;;20.85;14.55;;;15.60;99.90;;;;;;5114560;28;20261;-86
2021/06/06 04:52:24;;;;;;;19.65;12.43;;;15.70;99.90;;;;;;5113712;28;20181;-85
2021/06/06 04:54:50;;;;;;;19.70;12.02;;;15.70;99.90;;;;;;5113602;28;20185;-86
2021/06/06 04:57:15;;;;;;;17.88;11.88;;;15.80;99.90;;;;;;5113778;28;20205;-85
2021/06/06 04:59:41;;;;;;;15.63;12.13;;;;;;;;;;5113340;28;20178;-85
2021/06/06 05:02:09;;;;;;;21.90;12.00;;;18.00;99.90;;;;;;5113591;28;20588;-85
2021/06/06 05:04:36;;;;;;;18.75;11.45;;;16.00;99.90;;;;;;5114911;28;20611;-85
2021/06/06 05:07:03;;;;;;;19.02;12.95;;;16.10;99.90;;;;;;5114452;28;20185;-85
2021/06/06 05:09:28;;;;;;;15.98;11.85;;;16.20;99.90;;;;;;5113477;28;20178;-85
2021/06/06 05:11:54;;;;;;;15.40;11.57;;;16.30;99.90;;;;;;5114399;28;20235;-85
2021/06/06 05:14:20;;;;;;;17.77;11.57;;;16.40;99.90;;;;;;5113407;28;20610;-84
2021/06/06 05:16:45;;;;;;;13.82;10.27;;;16.60;99.90;;;;;;5112987;28;20605;-85
2021/06/06 05:19:12;;;;;;;14.20;10.90;;;16.70;99.90;;;;;;5114231;28;20706;-85
2021/06/06 05:21:39;;;;;;;14.10;10.77;;;16.80;99.90;;;;;;5113274;28;20196;-85
2021/06/06 05:24:05;;;;;;;15.13;10.38;;;16.90;99.90;;;;;;5114423;28;20238;-85
2021/06/06 05:26:31;;;;;;;15.13;11.20;;;16.90;99.90;;;;;;5114468;28;20185;-85
2021/06/06 05:28:56;;;;;;;13.55;11.10;;;17.00;99.90;;;;;;5095218;28;20257;-85
2021/06/06 05:31:22;;;;;;;16.10;11.48;;;17.10;99.90;;;;;;5114562;28;20507;-85
2021/06/06 05:33:48;;;;;;;20.45;10.57;;;17.20;99.90;;;;;;5113952;28;20170;-86
2021/06/06 05:36:14;;;;;;;16.67;11.45;;;17.30;99.90;;;;;;5114309;28;20182;-85
2021/06/06 05:38:40;;;;;;;17.00;11.77;;;17.40;99.90;;;;;;5114190;28;20209;-85
2021/06/06 05:41:06;;;;;;;16.88;11.77;;;17.50;99.90;;;;;;5112785;28;20213;-85
2021/06/06 05:43:32;;;;;;;14.93;11.45;;;17.60;99.90;;;;;;5095528;28;20177;-85
2021/06/06 05:45:58;;;;;;;17.50;9.85;;;17.70;99.90;;;;;;5114005;28;20193;-85
2021/06/06 05:48:25;;;;;;;12.85;9.85;;;17.80;99.90;;;;;;5113857;28;20286;-85
2021/06/06 05:50:53;;;;;;;15.90;10.75;;;17.90;99.90;;;;;;5111940;28;20181;-86
2021/06/06 05:53:18;;;;;;;25.42;10.73;;;18.00;99.90;;;;;;5112185;28;20174;-86
2021/06/06 05:55:45;;;;;;;15.68;10.25;;;18.20;99.90;;;;;;5112555;28;20215;-83
2021/06/06 05:58:13;;;;;;;14.52;7.93;;;18.30;99.90;;;;;;5112185;28;20252;-83
2021/06/06 06:00:42;;;;;;;14.35;9.60;;;18.30;99.90;;;;;;5112156;28;20190;-84
2021/06/06 06:03:09;;;;;;;15.10;9.27;;;18.40;99.90;;;;;;5112485;28;20170;-84
2021/06/06 06:05:35;;;;;;;13.02;9.00;;;18.50;99.90;;;;;;5113206;28;20197;-84
2021/06/06 06:08:35;;;;;;;12.55;9.18;;;18.60;99.90;;;;;;5112838;28;20213;-84
2021/06/06 06:11:04;;;;;;;11.45;8.23;;;18.60;99.90;;;;;;5066438;28;20217;-83
2021/06/06 06:13:30;;;;;;;16.50;8.52;;;18.70;99.90;;;;;;5109545;28;20533;-83
2021/06/06 06:15:57;;;;;;;10.70;7.78;;;18.90;99.90;;;;;;5110723;28;20198;-84
2021/06/06 06:18:25;;;;;;;11.45;7.55;;;19.00;99.90;;;;;;5109896;28;20193;-84
2021/06/06 06:20:52;;;;;;;11.30;8.10;;;19.10;99.90;;;;;;5109378;28;20178;-86
2021/06/06 06:23:18;;;;;;;9.65;6.97;;;19.10;99.90;;;;;;5127848;27;20181;-84
2021/06/06 06:25:44;;;;;;;11.75;8.75;;;19.20;99.90;;;;;;5105826;28;20190;-85
2021/06/06 06:28:10;;;;;;;16.80;7.65;;;19.30;99.90;;;;;;5097907;28;20982;-84
2021/06/06 06:30:39;;;;;;;8.63;7.20;;;19.40;99.90;;;;;;5105555;28;20181;-85
2021/06/06 06:33:07;;;;;;;15.60;7.50;;;19.40;99.90;;;;;;5108886;28;20170;-85
2021/06/06 06:35:35;;;;;;;10.32;6.32;;;19.50;99.90;;;;;;5108638;28;20833;-84
2021/06/06 06:38:02;;;;;;;13.77;6.80;;;19.60;99.90;;;;;;5110273;28;20201;-85
2021/06/06 06:40:27;;;;;;;9.05;6.00;;;19.70;99.90;;;;;;5115108;27;20642;-85
2021/06/06 06:42:55;;;;;;;8.90;5.20;;;19.80;99.90;;;;;;5095574;28;20178;-85
2021/06/06 06:45:24;;;;;;;8.90;5.63;;;19.80;99.90;;;;;;5115038;28;20185;-84
2021/06/06 06:47:50;;;;;;;9.07;5.32;;;19.90;99.90;;;;;;5113128;28;20181;-83
2021/06/06 06:50:19;;;;;;;8.30;5.25;;;20.10;99.90;;;;;;5112561;28;20192;-83
2021/06/06 06:52:44;;;;;;;7.43;4.53;;;20.20;99.90;;;;;;5108567;28;20259;-83
2021/06/06 06:55:15;;;;;;;8.88;4.68;;;20.30;99.90;;;;;;5111367;28;20297;-82
2021/06/06 06:57:41;;;;;;;8.45;4.80;;;20.40;99.90;;;;;;5115218;27;20198;-83
2021/06/06 07:00:12;;;;;;;7.60;5.80;;;20.50;99.90;;;;;;5098432;28;20260;-82
2021/06/06 07:02:37;;;;;;;8.60;4.63;;;20.60;99.90;;;;;;5097676;28;20261;-83
2021/06/06 07:05:04;;;;;;;8.75;3.83;;;20.70;99.90;;;;;;5090584;28;20320;-83
2021/06/06 07:07:30;;;;;;;7.03;3.80;;;20.90;99.90;;;;;;5095655;28;20190;-81
2021/06/06 07:09:56;;;;;;;4.47;3.60;;;20.90;99.90;;;;;;5103036;28;20333;-83
2021/06/06 07:12:22;;;;;;;7.03;4.32;;;20.90;99.90;;;;;;5102418;28;20290;-82
2021/06/06 07:14:47;;;;;;;5.63;4.00;;;21.00;99.90;;;;;;5110897;28;20243;-83
2021/06/06 07:17:13;;;;;;;6.20;3.90;;;21.10;99.90;;;;;;5112598;28;20205;-83
2021/06/06 07:19:39;;;;;;;5.93;3.10;;;21.20;99.90;;;;;;5112894;28;20279;-83
2021/06/06 07:22:05;;;;;;;4.80;3.35;;;21.30;99.90;;;;;;5114956;28;20188;-83
2021/06/06 07:24:31;;;;;;;7.82;3.83;;;21.40;99.90;;;;;;5113153;27;20206;-83
2021/06/06 07:26:57;;;;;;;8.40;3.58;;;21.50;99.90;;;;;;5110302;28;20224;-84
2021/06/06 07:29:26;;;;;;;4.38;3.60;;;21.50;99.90;;;;;;5114887;28;20174;-83
2021/06/06 07:31:55;;;;;;;10.38;3.50;;;21.50;99.90;;;;;;5106476;27;20214;-83
2021/06/06 07:34:21;;;;;;;6.25;3.67;;;21.60;99.90;;;;;;5109673;28;20219;-83
2021/06/06 07:36:47;;;;;;;8.02;3.50;;;21.80;99.90;;;;;;5114582;28;20198;-83
2021/06/06 07:39:13;;;;;;;6.28;3.25;;;21.80;99.90;;;;;;5113667;28;20205;-84
2021/06/06 07:41:40;;;;;;;7.32;3.40;;;21.90;99.90;;;;;;5112985;28;20182;-83
2021/06/06 07:44:06;;;;;;;5.10;2.92;;;22.00;99.90;;;;;;5112272;28;20532;-84
2021/06/06 07:46:32;;;;;;;6.88;3.67;;;22.00;99.90;;;;;;5114890;28;20212;-83
2021/06/06 07:48:57;;;;;;;5.10;3.55;;;21.90;99.90;;;;;;5096284;28;20642;-85
2021/06/06 07:51:23;;;;;;;7.65;4.20;;;22.10;99.90;;;;;;5109768;28;20640;-83
2021/06/06 07:53:50;;;;;;;7.80;4.28;;;22.10;99.90;;;;;;5112569;28;20182;-83
2021/06/06 07:56:16;;;;;;;4.85;3.42;;;22.10;99.90;;;;;;5095846;28;20612;-83
2021/06/06 07:58:42;;;;;;;6.25;3.42;;;22.10;99.90;;;;;;5111433;28;20196;-82
2021/06/06 08:01:10;;;;;;;6.53;2.65;;;22.10;99.90;;;;;;5112951;28;20189;-83
2021/06/06 08:03:36;;;;;;;10.30;3.03;;;22.10;99.90;;;;;;5113531;28;20546;-83
2021/06/06 08:06:04;;;;;;;7.13;3.58;;;22.30;99.20;;;;;;5114115;28;20182;-83
2021/06/06 08:08:31;;;;;;;5.47;2.83;;;22.20;99.80;;;;;;5111386;28;20170;-83
2021/06/06 08:10:59;;;;;;;5.63;3.83;;;22.20;99.70;;;;;;5114311;28;20635;-83
2021/06/06 08:13:25;;;;;;;5.05;3.30;;;22.30;99.90;;;;;;5113321;28;20216;-82
2021/06/06 08:15:51;;;;;;;7.80;3.45;;;22.40;98.00;;;;;;5105388;28;20194;-82
2021/06/06 08:18:24;;;;;;;4.68;3.40;;;22.40;99.00;;;;;;5111626;28;20213;-82
2021/06/06 08:20:55;;;;;;;5.05;2.88;;;22.50;97.70;;;;;;5108550;28;20668;-84
2021/06/06 08:23:21;;;;;;;5.30;3.42;;;22.50;96.90;;;;;;5112951;28;20261;-82
2021/06/06 08:25:47;;;;;;;7.18;2.90;;;22.60;96.90;;;;;;5113649;28;20185;-82
2021/06/06 08:28:13;;;;;;;6.43;3.50;;;22.80;96.70;;;;;;5113311;28;20272;-82
2021/06/06 08:30:46;;;;;;;12.05;3.42;;;22.90;96.10;;;;;;5111934;27;20186;-83
2021/06/06 08:33:12;;;;;;;5.20;3.13;;;22.90;96.00;;;;;;5109312;28;20174;-83
2021/06/06 08:35:38;;;;;;;7.18;3.15;;;23.00;96.20;;;;;;5107983;28;20189;-83
2021/06/06 08:38:05;;;;;;;3.80;2.72;;;23.10;95.70;;;;;;5112810;28;20597;-83
2021/06/06 08:40:37;;;;;;;7.05;3.88;;;23.00;95.30;;;;;;5113245;28;20658;-82
2021/06/06 08:43:04;;;;;;;10.90;3.08;;;22.80;94.90;;;;;;5111776;28;20200;-83
2021/06/06 08:45:46;;;;;;;8.55;2.92;;;22.60;95.10;;;;;;5104422;28;20604;-82
2021/06/06 08:48:12;;;;;;;5.28;2.80;;;22.40;95.80;;;;;;5111931;28;20207;-82
2021/06/06 08:50:42;;;;;;;5.32;2.90;;;22.30;95.00;;;;;;5113164;28;20196;-82
2021/06/06 08:53:22;;;;;;;7.07;3.10;;;22.40;94.30;;;;;;5113059;28;20215;-82
2021/06/06 08:56:19;;;;;;;6.95;2.65;;;22.30;94.40;;;;;;5102637;28;20208;-82
2021/06/06 08:59:04;;;;;;;4.10;2.55;;;22.20;94.20;;;;;;5102488;28;20185;-82
2021/06/06 09:01:48;;;;;;;3.55;2.60;;;22.10;94.30;;;;;;5106992;28;20657;-82
2021/06/06 09:04:31;;;;;;;5.78;2.88;;;22.20;95.10;;;;;;5097971;28;20192;-82
2021/06/06 09:07:34;;;;;;;13.77;2.80;;;22.40;94.80;;;;;;5112823;28;20293;-81
2021/06/06 09:10:11;;;;;;;3.78;2.50;;;22.90;94.30;;;;;;5106892;28;20189;-82
2021/06/06 09:12:38;;;;;;;10.73;2.47;;;23.00;92.60;;;;;;5115323;28;20229;-82
2021/06/06 09:15:07;;;;;;;6.57;2.70;;;23.00;93.20;;;;;;5118092;28;20494;-82
2021/06/06 09:17:58;;;;;;;3.53;2.78;;;23.10;93.00;;;;;;5113352;28;20206;-82
2021/06/06 09:20:32;;;;;;;3.97;2.40;;;23.30;93.20;;;;;;5111620;28;20170;-82
2021/06/06 09:23:12;;;;;;;4.97;2.47;;;23.50;90.80;;;;;;5112800;28;20187;-82
2021/06/06 09:25:43;;;;;;;4.32;2.30;;;23.30;91.00;;;;;;5109993;28;20264;-82
2021/06/06 09:28:25;;;;;;;6.47;2.40;;;23.10;91.00;;;;;;5109965;28;20190;-82
2021/06/06 09:31:10;;;;;;;4.80;2.30;;;23.10;90.90;;;;;;5113991;27;20174;-81
2021/06/06 09:34:02;;;;;;;6.30;2.80;;;23.40;90.10;;;;;;5102693;28;20184;-81
2021/06/06 09:36:40;;;;;;;9.13;2.60;;;23.40;90.00;;;;;;5094633;28;20990;-83
2021/06/06 09:39:16;;;;;;;3.53;2.25;;;23.20;90.60;;;;;;5111295;28;20174;-82
2021/06/06 09:41:49;;;;;;;5.07;2.35;;;22.90;90.00;;;;;;5112702;28;20177;-82
2021/06/06 09:44:14;;;;;;;11.30;2.92;;;22.80;90.50;;;;;;5112041;28;20186;-84
2021/06/06 09:46:59;;;;;;;4.25;2.85;;;23.00;90.80;;;;;;5100428;28;20181;-82
2021/06/06 09:49:28;;;;;;;9.43;3.05;;;23.40;90.80;;;;;;5108976;28;20181;-82
2021/06/06 09:51:57;;;;;;;3.67;2.42;;;23.70;89.50;;;;;;5111119;28;20609;-82
2021/06/06 09:54:32;;;;;;;7.55;2.35;;;23.70;88.80;;;;;;5109860;28;20218;-82
2021/06/06 09:57:04;;;;;;;11.65;2.70;;;23.70;90.10;;;;;;5100986;28;20194;-82
2021/06/06 09:59:35;;;;;;;3.92;2.05;;;23.90;89.10;;;;;;5111895;28;20213;-82
2021/06/06 10:02:21;;;;;;;4.85;2.47;;;24.20;85.70;;;;;;5112271;28;20174;-82
2021/06/06 10:04:59;;;;;;;4.18;2.28;;;24.40;86.30;;;;;;5111889;28;20653;-83
2021/06/06 10:07:30;;;;;;;2.03;1.75;;;24.70;85.80;;;;;;5110070;28;20196;-82
2021/06/06 10:09:58;;;;;;;5.03;1.80;;;24.90;80.80;;;;;;5112199;28;20646;-81
2021/06/06 10:12:39;;;;;;;3.50;1.90;;;24.90;80.30;;;;;;5111691;28;20237;-82
2021/06/06 10:15:17;;;;;;;2.83;2.50;;;24.70;77.20;;;;;;5111840;28;20176;-82
2021/06/06 10:17:51;;;;;;;7.18;3.67;;;24.70;76.50;;;;;;5111820;28;20605;-82
2021/06/06 10:20:28;;;;;;;3.78;2.20;;;24.30;76.10;;;;;;5111976;28;20177;-82
2021/06/06 10:22:58;;;;;;;6.38;2.50;;;23.90;76.30;;;;;;5111599;28;20684;-82
2021/06/06 10:25:33;;;;;;;5.35;2.58;;;23.70;76.70;;;;;;5110242;28;20273;-83
2021/06/06 10:28:04;;;;;;;4.90;2.30;;;23.90;77.80;;;;;;5111479;28;20189;-83
2021/06/06 10:30:41;;;;;;;4.78;2.30;;;24.10;78.40;;;;;;5110971;28;20169;-82
2021/06/06 10:33:14;;;;;;;10.10;2.03;;;24.40;79.70;;;;;;5104892;28;20616;-82
2021/06/06 10:35:41;;;;;;;8.40;2.25;;;24.30;80.40;;;;;;5093751;28;20190;-82
2021/06/06 10:38:07;;;;;;;5.45;2.47;;;24.00;78.40;;;;;;5102888;28;20213;-83
2021/06/06 10:40:57;;;;;;;5.88;2.55;;;23.70;78.30;;;;;;5110996;28;20251;-83
2021/06/06 10:43:48;;;;;;;6.25;2.30;;;23.50;79.60;;;;;;5110963;28;20174;-84
2021/06/06 10:46:28;;;;;;;3.65;2.17;;;23.30;78.60;;;;;;5111780;28;20177;-83
2021/06/06 10:49:17;;;;;;;2.38;2.03;;;23.20;78.70;;;;;;5111813;28;20201;-83
2021/06/06 10:51:50;;;;;;;5.80;2.50;;;23.10;78.20;;;;;;5110979;28;20181;-82
2021/06/06 10:54:37;;;;;;;4.38;1.98;;;22.90;79.80;;;;;;5111160;28;20297;-83
2021/06/06 10:57:23;;;;;;;3.30;2.38;;;22.80;79.70;;;;;;5110325;28;20194;-83
2021/06/06 11:00:11;;;;;;;4.65;2.50;;;22.70;77.80;;;;;;5111252;28;20174;-83
2021/06/06 11:02:54;;;;;;;5.38;2.53;;;22.70;79.30;;;;;;5099633;28;20229;-83
2021/06/06 11:05:28;;;;;;;3.95;2.40;;;22.70;79.20;;;;;;5111265;28;20170;-83
2021/06/06 11:07:54;;;;;;;11.95;2.17;;;23.10;79.50;;;;;;5111564;28;20262;-82
2021/06/06 11:10:20;;;;;;;5.60;2.47;;;23.60;77.00;;;;;;5111483;28;20256;-83
2021/06/06 11:12:48;;;;;;;7.00;1.95;;;24.20;73.70;;;;;;5111269;28;20225;-84
2021/06/06 11:15:20;;;;;;;3.42;2.05;;;24.60;72.40;;;;;;5107913;28;20684;-83
2021/06/06 11:17:45;;;;;;;4.82;2.03;;;24.80;70.80;;;;;;5111034;28;20202;-83
2021/06/06 11:20:31;;;;;;;3.67;2.10;;;25.00;68.00;;;;;;5099537;28;20189;-83
2021/06/06 11:22:58;;;;;;;2.58;2.10;;;25.20;69.60;;;;;;5100843;28;20253;-83
2021/06/06 11:25:43;;;;;;;5.50;1.90;;;25.40;68.60;;;;;;5111141;28;20261;-84
2021/06/06 11:28:36;;;;;;;4.10;2.97;;;25.30;65.80;;;;;;5105781;28;20226;-84
2021/06/06 11:31:19;;;;;;;12.07;4.60;;;25.10;70.00;;;;;;5115923;27;20661;-82
2021/06/06 11:33:54;;;;;;;14.00;6.57;;;25.30;67.70;;;;;;5102015;28;20183;-82
2021/06/06 11:36:34;;;;;;;6.28;2.17;;;25.30;68.90;;;;;;5094532;28;20176;-82
2021/06/06 11:39:28;;;;;;;11.38;2.25;;;25.20;68.40;;;;;;5099173;28;20185;-82
2021/06/06 11:41:55;;;;;;;8.48;2.70;;;25.10;67.70;;;;;;5111034;28;20219;-82
2021/06/06 11:44:32;;;;;;;2.30;1.60;;;25.30;66.40;;;;;;5111320;28;20180;-82
2021/06/06 11:47:06;;;;;;;7.20;1.70;;;25.30;65.40;;;;;;5114151;28;20185;-82
2021/06/06 11:50:10;;;;;;;4.20;1.60;;;25.30;63.90;;;;;;5104748;28;20182;-82
2021/06/06 11:52:53;;;;;;;4.78;2.10;;;25.30;63.60;;;;;;5094598;28;20201;-82
2021/06/06 11:55:28;;;;;;;2.83;1.70;;;25.30;64.80;;;;;;5115004;28;20190;-83
2021/06/06 11:58:04;;;;;;;6.93;4.07;;;25.20;64.70;;;;;;5113761;28;20572;-83
2021/06/06 12:00:34;;;;;;;5.40;2.67;;;25.30;65.50;;;;;;5112953;28;20245;-82
2021/06/06 12:03:18;;;;;;;3.00;1.80;;;25.30;64.20;;;;;;5113994;28;20188;-82
2021/06/06 12:06:28;;;;;;;3.78;2.72;;;25.30;61.80;;;;;;5114139;28;20177;-82
2021/06/06 12:09:12;;;;;;;7.28;2.10;;;25.30;61.40;;;;;;5097646;28;20230;-82
2021/06/06 12:11:38;;;;;;;7.78;1.98;;;25.20;62.00;;;;;;5113825;28;20229;-83
2021/06/06 12:14:22;;;;;;;4.93;1.60;;;25.30;61.80;;;;;;5107875;28;20178;-81
2021/06/06 12:16:56;;;;;;;4.00;1.92;;;25.10;60.70;;;;;;5113835;28;20201;-83
2021/06/06 12:19:37;;;;;;;4.88;2.47;;;25.10;62.30;;;;;;5114174;28;20196;-83
2021/06/06 12:22:10;;;;;;;3.22;1.60;;;25.10;61.60;;;;;;5113481;28;20177;-81
2021/06/06 12:24:35;;;;;;;3.42;2.08;;;25.30;59.80;;;;;;5113643;28;20234;-81
2021/06/06 12:27:22;;;;;;;2.72;1.95;;;25.30;59.50;;;;;;5112635;28;20185;-81
2021/06/06 12:29:55;;;;;;;5.50;1.67;;;25.40;59.00;;;;;;5111069;28;21070;-81
2021/06/06 12:32:33;;;;;;;3.80;1.67;;;25.10;59.30;;;;;;5113076;27;20213;-83
2021/06/06 12:35:10;;;;;;;3.25;1.95;;;25.00;61.30;;;;;;5105183;28;20177;-82
2021/06/06 12:37:37;;;;;;;3.88;1.40;;;25.20;60.50;;;;;;5096378;28;20270;-82
2021/06/06 12:40:04;;;;;;;3.28;1.70;;;25.20;57.60;;;;;;5093332;28;20182;-82
2021/06/06 12:42:30;;;;;;;5.22;1.33;;;25.20;58.50;;;;;;5092881;28;20200;-83
2021/06/06 12:45:00;;;;;;;4.65;1.85;;;25.30;58.30;;;;;;5092794;28;20240;-83
2021/06/06 12:47:36;;;;;;;1.67;1.38;;;25.20;57.80;;;;;;5093410;28;20650;-82
2021/06/06 12:50:06;;;;;;;3.70;2.40;;;25.20;57.40;;;;;;5091726;28;20596;-82
2021/06/06 12:52:42;;;;;;;2.50;1.63;;;25.20;58.50;;;;;;5092292;28;20643;-82
2021/06/06 12:55:23;;;;;;;2.75;1.55;;;25.10;58.70;;;;;;5091674;28;20529;-82
2021/06/06 12:57:52;;;;;;;3.08;1.80;;;24.90;58.60;;;;;;5092863;28;20228;-81
2021/06/06 13:00:21;;;;;;;3.38;1.40;;;25.00;58.70;;;;;;5091554;28;20744;-82